Padul, Spain
Current Conditions -  °F | °C
As of 3:30 AM on Tuesday 23 Dec 2014 (Local Time) from LEGR Reporting Station
Few Clouds Few Clouds  
Wind Chill:   Ceiling: Unl
Heat Index:   Visibility: 4mi
Dew Point:   Wind: 2mph
Humidity: 100%   Direction: NA
Pressure: 30.39"   Gusts: NA
Location:  37.02°N, 3.63°W
Report Text: LEGR 230230Z VRB02KT 6000 FEW003 01/01 Q1029
Loading
Personal Weather Stations






























Interactive Weather Map New forecast layout! Learn more

10-Day Weather Forecast

Advertisements
Track Severe Weather on mobile